Time;durP1;ratioP1;P1;durP2;ratioP2;P2;SDS_P1;SDS_P2;PMS_P1;PMS_P2;Temp;Humidity;BMP_temperature;BMP_pressure;BME280_temperature;BME280_humidity;BME280_pressure;Samples;Min_cycle;Max_cycle;Signal;HPM_P1;HPM_P2
2021/04/08 00:01:16;;;;;;;16.35;2.30;;;0.30;99.90;;;;;;5068734;28;20039;-77
2021/04/08 00:03:43;;;;;;;17.00;2.25;;;0.30;99.90;;;;;;5075233;28;20056;-77
2021/04/08 00:06:09;;;;;;;18.20;2.53;;;0.40;99.90;;;;;;5067409;28;20064;-77
2021/04/08 00:08:35;;;;;;;17.63;2.38;;;0.50;99.90;;;;;;5070723;28;20500;-77
2021/04/08 00:11:00;;;;;;;16.85;1.90;;;0.40;99.90;;;;;;5066952;28;20036;-77
2021/04/08 00:13:26;;;;;;;19.45;2.53;;;0.50;99.90;;;;;;5078444;28;20048;-77
2021/04/08 00:15:52;;;;;;;16.02;2.17;;;0.50;99.90;;;;;;5071389;28;20087;-76
2021/04/08 00:18:18;;;;;;;17.40;2.35;;;0.60;99.90;;;;;;5066994;28;20451;-76
2021/04/08 00:20:45;;;;;;;20.83;3.13;;;0.60;99.90;;;;;;5074003;28;20051;-76
2021/04/08 00:23:10;;;;;;;19.80;2.28;;;0.70;99.90;;;;;;5066132;28;20036;-77
2021/04/08 00:25:37;;;;;;;13.88;1.77;;;0.70;99.90;;;;;;5072016;28;20545;-77
2021/04/08 00:28:04;;;;;;;15.00;2.28;;;0.70;99.90;;;;;;5066467;28;20443;-77
2021/04/08 00:30:30;;;;;;;18.45;2.30;;;0.80;99.90;;;;;;5073090;28;20119;-77
2021/04/08 00:32:56;;;;;;;13.13;1.75;;;0.90;99.90;;;;;;5067825;28;20110;-77
2021/04/08 00:35:22;;;;;;;12.10;1.60;;;0.90;99.90;;;;;;5075400;28;20052;-77
2021/04/08 00:37:47;;;;;;;14.05;1.60;;;0.90;99.90;;;;;;5067991;28;20078;-77
2021/04/08 00:40:16;;;;;;;11.90;1.77;;;0.90;99.90;;;;;;5072476;28;20036;-77
2021/04/08 00:42:42;;;;;;;14.32;1.55;;;0.90;99.90;;;;;;5069703;28;20461;-77
2021/04/08 00:45:10;;;;;;;10.98;1.23;;;0.90;99.90;;;;;;5072448;28;20469;-77
2021/04/08 00:47:36;;;;;;;7.88;1.30;;;0.80;99.90;;;;;;5072973;28;20040;-77
2021/04/08 00:50:03;;;;;;;6.85;1.20;;;0.80;99.90;;;;;;5077380;28;20095;-77
2021/04/08 00:52:30;;;;;;;8.85;1.33;;;0.70;99.90;;;;;;5068920;28;20094;-77
2021/04/08 00:54:56;;;;;;;11.38;1.48;;;0.70;99.90;;;;;;5075108;28;20062;-77
2021/04/08 00:57:22;;;;;;;11.73;1.58;;;0.60;99.90;;;;;;5073635;28;20028;-77
2021/04/08 00:59:51;;;;;;;7.57;1.30;;;0.60;99.90;;;;;;5071088;28;20518;-77
2021/04/08 01:02:17;;;;;;;11.98;1.55;;;0.60;99.90;;;;;;5071270;28;20036;-77
2021/04/08 01:04:43;;;;;;;9.60;1.42;;;0.60;99.90;;;;;;5067620;28;20044;-77
2021/04/08 01:07:09;;;;;;;11.45;1.40;;;0.60;99.90;;;;;;5079231;28;20086;-77
2021/04/08 01:09:35;;;;;;;8.40;1.20;;;0.50;99.90;;;;;;5072278;28;20640;-77
2021/04/08 01:12:01;;;;;;;12.30;1.17;;;0.50;99.90;;;;;;5073656;28;20041;-77
2021/04/08 01:14:27;;;;;;;5.78;1.02;;;0.50;99.90;;;;;;5070656;28;20025;-77
2021/04/08 01:16:59;;;;;;;11.40;0.95;;;0.50;99.90;;;;;;5073747;28;20051;-77
2021/04/08 01:19:53;;;;;;;6.78;1.02;;;0.50;99.90;;;;;;5066170;28;20047;-77
2021/04/08 01:22:55;;;;;;;7.07;1.08;;;0.50;99.90;;;;;;5077699;28;20497;-77
2021/04/08 01:25:36;;;;;;;10.70;1.15;;;0.40;99.90;;;;;;5065431;28;20044;-77
2021/04/08 01:28:26;;;;;;;11.13;1.20;;;0.40;99.90;;;;;;5087231;28;20449;-77
2021/04/08 01:30:54;;;;;;;8.77;1.15;;;0.50;99.90;;;;;;5067362;28;20044;-77
2021/04/08 01:33:47;;;;;;;4.47;0.70;;;0.40;99.90;;;;;;5083400;28;20044;-77
2021/04/08 01:36:26;;;;;;;8.23;1.02;;;0.40;99.90;;;;;;5069170;28;20133;-77
2021/04/08 01:38:59;;;;;;;9.32;0.90;;;0.40;99.90;;;;;;5072314;28;20116;-76
2021/04/08 01:41:25;;;;;;;12.27;1.30;;;0.40;99.90;;;;;;5069489;28;20040;-76
2021/04/08 01:43:56;;;;;;;11.10;1.10;;;0.40;99.90;;;;;;5070302;28;20032;-76
2021/04/08 01:46:24;;;;;;;6.43;0.70;;;0.50;99.90;;;;;;5066668;28;20436;-76
2021/04/08 01:48:53;;;;;;;10.70;1.00;;;0.50;99.90;;;;;;5078264;28;20127;-76
2021/04/08 01:51:22;;;;;;;13.45;1.10;;;0.50;99.90;;;;;;5080311;28;20151;-76
2021/04/08 01:53:54;;;;;;;9.07;1.20;;;0.50;99.90;;;;;;5074922;28;20043;-76
2021/04/08 01:56:23;;;;;;;9.98;1.17;;;0.60;99.90;;;;;;5073206;28;20442;-77
2021/04/08 01:58:49;;;;;;;11.07;1.15;;;0.60;99.90;;;;;;5082382;28;20072;-77
2021/04/08 02:01:19;;;;;;;8.90;0.80;;;0.60;99.90;;;;;;5072585;28;20040;-77
2021/04/08 02:03:47;;;;;;;5.60;1.02;;;0.60;99.90;;;;;;5078383;28;20044;-77
2021/04/08 02:06:13;;;;;;;8.05;1.02;;;0.60;99.90;;;;;;5075639;28;20072;-77
2021/04/08 02:08:41;;;;;;;11.13;1.75;;;0.70;99.90;;;;;;5083697;28;20056;-77
2021/04/08 02:11:11;;;;;;;12.25;1.73;;;0.70;99.90;;;;;;5071842;28;20048;-78
2021/04/08 02:13:40;;;;;;;8.27;1.23;;;0.70;99.90;;;;;;5076521;28;20089;-77
2021/04/08 02:16:10;;;;;;;5.03;0.65;;;0.70;99.90;;;;;;5070906;28;20101;-77
2021/04/08 02:18:37;;;;;;;10.13;1.45;;;0.80;99.90;;;;;;5078204;28;20040;-77
2021/04/08 02:21:03;;;;;;;5.63;1.40;;;0.80;99.90;;;;;;5067502;28;20438;-77
2021/04/08 02:23:33;;;;;;;6.43;0.80;;;0.80;99.90;;;;;;5071715;28;20043;-77
2021/04/08 02:25:59;;;;;;;8.32;0.80;;;1.00;99.80;;;;;;5082370;28;20087;-77
2021/04/08 02:28:27;;;;;;;7.25;0.90;;;0.90;99.80;;;;;;5077265;28;20131;-77
2021/04/08 02:30:54;;;;;;;8.98;1.13;;;1.00;99.80;;;;;;5075958;28;20110;-77
2021/04/08 02:33:25;;;;;;;9.48;1.00;;;1.10;99.70;;;;;;5077448;28;20507;-77
2021/04/08 02:35:52;;;;;;;7.18;1.27;;;1.10;99.70;;;;;;5078238;28;20043;-77
2021/04/08 02:38:20;;;;;;;14.30;1.02;;;1.10;99.80;;;;;;5067991;28;20057;-77
2021/04/08 02:40:46;;;;;;;6.65;1.15;;;1.10;99.80;;;;;;5080455;28;20036;-77
2021/04/08 02:43:12;;;;;;;9.75;1.45;;;1.10;99.80;;;;;;5069677;28;20033;-77
2021/04/08 02:45:40;;;;;;;6.90;0.90;;;1.10;99.90;;;;;;5076971;28;20553;-77
2021/04/08 02:48:11;;;;;;;7.45;1.48;;;1.10;99.80;;;;;;5073813;28;20361;-77
2021/04/08 02:50:40;;;;;;;8.18;1.15;;;1.10;99.90;;;;;;5072654;28;20094;-77
2021/04/08 02:53:12;;;;;;;6.18;0.88;;;1.10;99.90;;;;;;5075046;28;20075;-77
2021/04/08 02:55:52;;;;;;;8.23;1.05;;;1.10;99.90;;;;;;5077334;28;20555;-77
2021/04/08 02:58:20;;;;;;;9.23;0.93;;;1.00;99.90;;;;;;5066618;28;20042;-77
2021/04/08 03:01:00;;;;;;;8.02;1.13;;;1.00;99.90;;;;;;5082990;28;20560;-77
2021/04/08 03:03:41;;;;;;;8.27;1.20;;;1.00;99.90;;;;;;5077150;28;20120;-77
2021/04/08 03:06:09;;;;;;;8.55;1.67;;;0.90;99.90;;;;;;5078662;28;20241;-77
2021/04/08 03:08:40;;;;;;;10.60;1.40;;;0.80;99.90;;;;;;5070752;28;20048;-77
2021/04/08 03:11:09;;;;;;;11.63;1.60;;;0.70;99.90;;;;;;5076115;28;20794;-77
2021/04/08 03:13:37;;;;;;;7.18;1.20;;;0.60;99.90;;;;;;5068738;28;20093;-77
2021/04/08 03:16:09;;;;;;;9.68;1.52;;;0.60;99.90;;;;;;5078952;28;20044;-77
2021/04/08 03:18:38;;;;;;;14.60;1.48;;;0.50;99.90;;;;;;5069563;28;20037;-77
2021/04/08 03:21:05;;;;;;;7.75;1.15;;;0.50;99.90;;;;;;5078459;28;20040;-77
2021/04/08 03:23:33;;;;;;;10.93;0.98;;;0.40;99.90;;;;;;5069551;28;20058;-77
2021/04/08 03:26:01;;;;;;;8.35;1.00;;;0.40;99.90;;;;;;5075571;28;20032;-77
2021/04/08 03:28:31;;;;;;;7.80;1.20;;;0.40;99.90;;;;;;5067623;28;20654;-77
2021/04/08 03:30:57;;;;;;;8.25;1.00;;;0.40;99.90;;;;;;5075911;28;20062;-77
2021/04/08 03:33:23;;;;;;;11.10;1.13;;;0.40;99.90;;;;;;5082878;28;20029;-77
2021/04/08 03:35:50;;;;;;;5.03;1.13;;;0.40;99.90;;;;;;5071703;28;20459;-77
2021/04/08 03:38:17;;;;;;;8.60;1.20;;;0.40;99.90;;;;;;5079216;28;20028;-77
2021/04/08 03:40:44;;;;;;;9.07;1.20;;;0.40;99.90;;;;;;5069487;28;20036;-77
2021/04/08 03:43:14;;;;;;;14.75;1.58;;;0.40;99.90;;;;;;5076102;28;20032;-77
2021/04/08 03:45:40;;;;;;;10.05;1.10;;;0.50;99.90;;;;;;5070393;28;20434;-77
2021/04/08 03:48:09;;;;;;;8.73;0.98;;;0.50;99.90;;;;;;5078746;28;20036;-77
2021/04/08 03:50:37;;;;;;;12.45;1.35;;;0.60;99.90;;;;;;5071992;28;20416;-78
2021/04/08 03:53:04;;;;;;;9.55;1.33;;;0.60;99.90;;;;;;5074466;28;20521;-77
2021/04/08 03:55:31;;;;;;;13.35;1.48;;;0.60;99.90;;;;;;5069882;28;20640;-77
2021/04/08 03:57:58;;;;;;;13.80;1.30;;;0.70;99.90;;;;;;5075489;28;20036;-77
2021/04/08 04:00:25;;;;;;;8.55;1.10;;;0.70;99.90;;;;;;5070047;28;20429;-77
2021/04/08 04:02:52;;;;;;;12.77;1.35;;;0.80;99.90;;;;;;5077355;28;20118;-77
2021/04/08 04:05:18;;;;;;;8.85;1.00;;;0.80;99.90;;;;;;5077927;28;20142;-77
2021/04/08 04:07:50;;;;;;;11.82;1.58;;;0.80;99.90;;;;;;5073575;28;20369;-76
2021/04/08 04:10:21;;;;;;;10.23;1.13;;;0.90;99.90;;;;;;5078023;28;20135;-76
2021/04/08 04:12:53;;;;;;;6.22;1.33;;;0.90;99.90;;;;;;5075047;28;20098;-77
2021/04/08 04:15:20;;;;;;;13.65;1.38;;;0.90;99.90;;;;;;5069990;28;20063;-75
2021/04/08 04:17:46;;;;;;;9.07;1.25;;;0.90;99.90;;;;;;5072257;28;20031;-75
2021/04/08 04:20:15;;;;;;;10.90;1.50;;;0.90;99.90;;;;;;5078445;28;20131;-75
2021/04/08 04:22:42;;;;;;;12.65;1.27;;;1.00;99.90;;;;;;5068243;28;20460;-74
2021/04/08 04:25:10;;;;;;;13.73;1.00;;;1.00;99.90;;;;;;5076468;28;20040;-75
2021/04/08 04:27:36;;;;;;;10.23;1.27;;;1.00;99.90;;;;;;5068013;28;20040;-75
2021/04/08 04:30:04;;;;;;;6.18;1.05;;;1.00;99.90;;;;;;5074768;28;20036;-75
2021/04/08 04:32:30;;;;;;;11.18;1.30;;;1.10;99.90;;;;;;5069183;28;20044;-75
2021/04/08 04:34:56;;;;;;;8.15;1.48;;;1.00;99.90;;;;;;5078306;28;20143;-75
2021/04/08 04:37:22;;;;;;;15.05;2.08;;;1.00;99.90;;;;;;5070522;28;20044;-76
2021/04/08 04:39:48;;;;;;;11.00;1.42;;;1.00;99.90;;;;;;5070848;28;20955;-75
2021/04/08 04:42:14;;;;;;;8.07;1.23;;;1.10;99.90;;;;;;5070849;28;20479;-75
2021/04/08 04:44:40;;;;;;;10.10;1.33;;;1.10;99.90;;;;;;5073782;28;20457;-75
2021/04/08 04:47:06;;;;;;;9.43;1.65;;;1.10;99.90;;;;;;5076217;28;20063;-76
2021/04/08 04:49:32;;;;;;;8.32;1.63;;;1.10;99.90;;;;;;5076084;28;20076;-76
2021/04/08 04:51:58;;;;;;;12.88;1.92;;;1.20;99.90;;;;;;5072781;28;20086;-76
2021/04/08 04:54:23;;;;;;;9.13;1.50;;;1.20;99.90;;;;;;5071564;28;20036;-76
2021/04/08 04:56:49;;;;;;;10.00;1.42;;;1.20;99.90;;;;;;5071300;28;20419;-76
2021/04/08 04:59:15;;;;;;;13.05;1.88;;;1.20;99.90;;;;;;5067344;28;20094;-76
2021/04/08 05:01:41;;;;;;;6.22;1.23;;;1.20;99.90;;;;;;5079806;28;20063;-76
2021/04/08 05:04:07;;;;;;;8.07;1.30;;;1.20;99.90;;;;;;5069508;28;20484;-76
2021/04/08 05:06:33;;;;;;;10.60;1.95;;;1.20;99.90;;;;;;5072561;28;20471;-78
2021/04/08 05:08:59;;;;;;;7.20;1.80;;;1.20;99.90;;;;;;5068591;28;20052;-79
2021/04/08 05:11:25;;;;;;;11.77;1.52;;;1.30;99.90;;;;;;5074621;28;20040;-78
2021/04/08 05:13:51;;;;;;;9.55;1.75;;;1.30;99.90;;;;;;5070174;28;20049;-79
2021/04/08 05:16:18;;;;;;;5.05;1.30;;;1.40;99.90;;;;;;5075513;28;20063;-76
2021/04/08 05:18:43;;;;;;;11.30;1.58;;;1.40;99.90;;;;;;5069702;28;20059;-79
2021/04/08 05:21:23;;;;;;;12.65;2.40;;;1.40;99.90;;;;;;5077655;28;20029;-79
2021/04/08 05:23:56;;;;;;;7.68;1.73;;;1.40;99.90;;;;;;5066287;28;20083;-77
2021/04/08 05:26:23;;;;;;;10.45;1.35;;;1.40;99.90;;;;;;5076927;28;20051;-77
2021/04/08 05:28:49;;;;;;;6.22;1.20;;;1.50;99.90;;;;;;5073761;28;20052;-77
2021/04/08 05:31:16;;;;;;;10.32;1.45;;;1.50;99.90;;;;;;5074838;28;20041;-76
2021/04/08 05:33:42;;;;;;;7.90;1.30;;;1.50;99.90;;;;;;5075160;28;20089;-77
2021/04/08 05:36:08;;;;;;;7.70;1.30;;;1.60;99.90;;;;;;5084381;28;20059;-77
2021/04/08 05:38:34;;;;;;;8.02;1.50;;;1.50;99.90;;;;;;5069858;28;20199;-78
2021/04/08 05:40:59;;;;;;;10.35;1.45;;;1.60;99.90;;;;;;5078380;28;20047;-78
2021/04/08 05:43:25;;;;;;;4.35;0.95;;;1.70;99.90;;;;;;5076329;28;20075;-78
2021/04/08 05:45:51;;;;;;;5.43;1.00;;;1.70;99.60;;;;;;5073487;28;20045;-76
2021/04/08 05:48:17;;;;;;;9.18;1.73;;;1.80;99.50;;;;;;5079769;28;20032;-77
2021/04/08 05:50:43;;;;;;;7.15;1.42;;;1.80;99.10;;;;;;5074320;28;20112;-79
2021/04/08 05:53:13;;;;;;;6.30;0.80;;;1.90;99.10;;;;;;5082670;28;20346;-77
2021/04/08 05:55:39;;;;;;;8.82;1.63;;;1.90;99.00;;;;;;5076012;28;20484;-77
2021/04/08 05:58:05;;;;;;;6.53;0.95;;;2.00;99.10;;;;;;5080676;28;20095;-76
2021/04/08 06:00:30;;;;;;;12.95;4.97;;;2.00;98.90;;;;;;5072015;28;20500;-75
2021/04/08 06:02:56;;;;;;;9.68;1.67;;;2.00;99.00;;;;;;5088240;28;20087;-75
2021/04/08 06:05:22;;;;;;;8.48;1.27;;;2.00;99.50;;;;;;5073169;28;20360;-75
2021/04/08 06:07:48;;;;;;;9.30;1.40;;;2.00;99.30;;;;;;5075133;28;20036;-77
2021/04/08 06:10:14;;;;;;;11.45;1.63;;;2.00;99.50;;;;;;5069705;28;20162;-77
2021/04/08 06:12:44;;;;;;;5.75;1.17;;;2.00;99.70;;;;;;5072806;28;20067;-76
2021/04/08 06:15:11;;;;;;;5.70;1.33;;;2.00;99.80;;;;;;5071191;28;20053;-77
2021/04/08 06:17:38;;;;;;;10.18;1.25;;;2.00;99.80;;;;;;5076250;28;20501;-77
2021/04/08 06:20:05;;;;;;;8.35;1.60;;;2.00;99.70;;;;;;5068878;28;20416;-77
2021/04/08 06:22:32;;;;;;;9.88;1.70;;;2.00;99.90;;;;;;5075481;28;20552;-76
2021/04/08 06:24:58;;;;;;;9.27;1.77;;;2.10;99.70;;;;;;5076170;28;20049;-76
2021/04/08 06:27:25;;;;;;;9.27;1.52;;;2.10;99.90;;;;;;5084285;28;20056;-77
2021/04/08 06:29:50;;;;;;;7.25;1.65;;;2.20;99.90;;;;;;5083289;28;20055;-78
2021/04/08 06:32:16;;;;;;;9.98;1.80;;;2.20;99.90;;;;;;5069640;28;20060;-78
2021/04/08 06:34:44;;;;;;;10.77;1.73;;;2.30;99.90;;;;;;5074992;28;20465;-78
2021/04/08 06:37:10;;;;;;;5.78;1.63;;;2.30;99.90;;;;;;5073920;28;20051;-76
2021/04/08 06:39:36;;;;;;;8.18;1.83;;;2.40;99.90;;;;;;5067019;28;20113;-76
2021/04/08 06:42:03;;;;;;;7.38;1.60;;;2.50;99.90;;;;;;5074230;28;20048;-78
2021/04/08 06:44:31;;;;;;;7.18;1.70;;;2.50;99.80;;;;;;5076337;28;20036;-79
2021/04/08 06:47:03;;;;;;;10.95;1.55;;;2.60;99.90;;;;;;5072739;28;20477;-78
2021/04/08 06:49:58;;;;;;;11.00;2.55;;;2.70;99.90;;;;;;5069466;28;20036;-77
2021/04/08 06:52:24;;;;;;;11.13;2.30;;;2.80;99.80;;;;;;5078565;28;20037;-77
2021/04/08 06:54:51;;;;;;;6.95;2.00;;;2.90;99.80;;;;;;5066598;28;20033;-78
2021/04/08 06:57:18;;;;;;;7.93;1.45;;;2.90;99.80;;;;;;5076372;28;20119;-79
2021/04/08 06:59:45;;;;;;;7.45;1.25;;;3.00;99.90;;;;;;5074524;28;20134;-80
2021/04/08 07:02:18;;;;;;;9.35;1.48;;;2.90;99.20;;;;;;5076544;28;20044;-78
2021/04/08 07:04:44;;;;;;;8.07;1.27;;;3.00;99.40;;;;;;5073956;28;20083;-78
2021/04/08 07:07:10;;;;;;;7.18;1.65;;;3.10;99.70;;;;;;5071692;28;20480;-78
2021/04/08 07:09:36;;;;;;;6.05;1.55;;;3.20;99.70;;;;;;5077689;28;20171;-78
2021/04/08 07:12:02;;;;;;;8.05;1.55;;;3.50;99.80;;;;;;5086552;28;20109;-78
2021/04/08 07:14:28;;;;;;;5.53;1.20;;;3.70;99.60;;;;;;5073955;28;20488;-78
2021/04/08 07:16:54;;;;;;;9.35;2.28;;;4.00;99.70;;;;;;5067507;28;20135;-78
2021/04/08 07:19:20;;;;;;;8.30;1.90;;;4.30;99.10;;;;;;5079311;28;20115;-78
2021/04/08 07:21:46;;;;;;;5.35;1.17;;;4.70;99.10;;;;;;5073252;28;20040;-78
2021/04/08 07:24:18;;;;;;;7.88;1.60;;;5.00;98.70;;;;;;5080924;28;20044;-78
2021/04/08 07:26:54;;;;;;;6.13;1.10;;;5.20;98.50;;;;;;5070925;28;20544;-78
2021/04/08 07:29:22;;;;;;;5.85;1.50;;;5.20;97.40;;;;;;5079875;28;20064;-78
2021/04/08 07:31:48;;;;;;;7.55;1.60;;;5.20;97.60;;;;;;5069475;28;20040;-78
2021/04/08 07:34:35;;;;;;;7.68;1.88;;;5.20;96.90;;;;;;5080537;28;20123;-80
2021/04/08 07:37:02;;;;;;;7.82;1.52;;;5.10;97.40;;;;;;5070489;28;21565;-81
2021/04/08 07:39:38;;;;;;;7.97;1.95;;;5.10;97.50;;;;;;5077555;28;20547;-79
2021/04/08 07:42:13;;;;;;;5.15;1.20;;;5.10;97.60;;;;;;5074727;28;20032;-80
2021/04/08 07:44:50;;;;;;;6.57;1.98;;;5.10;97.40;;;;;;5071950;28;20047;-78
2021/04/08 07:47:22;;;;;;;9.10;1.67;;;5.10;97.70;;;;;;5075242;28;20102;-76
2021/04/08 07:49:51;;;;;;;7.60;1.67;;;5.00;97.00;;;;;;5076405;28;20037;-77
2021/04/08 07:52:18;;;;;;;5.35;1.40;;;5.00;97.50;;;;;;5067777;28;20033;-78
2021/04/08 07:55:00;;;;;;;6.15;1.88;;;4.90;97.40;;;;;;5070614;28;20060;-77
2021/04/08 07:57:26;;;;;;;7.32;1.70;;;4.80;97.20;;;;;;5072200;28;20373;-78
2021/04/08 07:59:52;;;;;;;11.88;2.00;;;4.80;97.60;;;;;;5082005;28;20535;-77
2021/04/08 08:02:24;;;;;;;8.38;1.50;;;4.70;97.80;;;;;;5087176;28;20171;-77
2021/04/08 08:04:50;;;;;;;7.88;1.80;;;4.70;97.20;;;;;;5074048;28;20036;-77
2021/04/08 08:07:27;;;;;;;6.50;1.85;;;4.70;97.40;;;;;;5067353;28;20028;-77
2021/04/08 08:09:53;;;;;;;9.48;1.50;;;4.70;97.30;;;;;;5084788;28;20063;-77
2021/04/08 08:12:30;;;;;;;8.30;1.65;;;4.80;97.50;;;;;;5074493;28;20123;-77
2021/04/08 08:15:22;;;;;;;7.63;1.77;;;4.70;97.30;;;;;;5080918;28;20049;-78
2021/04/08 08:17:48;;;;;;;6.65;1.10;;;4.80;96.60;;;;;;5071725;28;20119;-78
2021/04/08 08:20:16;;;;;;;9.75;1.85;;;4.80;96.70;;;;;;5073406;28;20170;-79
2021/04/08 08:22:43;;;;;;;8.30;1.60;;;4.80;97.40;;;;;;5068492;28;20043;-79
2021/04/08 08:25:10;;;;;;;11.80;1.70;;;5.00;98.10;;;;;;5085160;28;20040;-79
2021/04/08 08:27:44;;;;;;;5.72;1.67;;;5.20;97.50;;;;;;5071691;28;20032;-76
2021/04/08 08:30:12;;;;;;;;;;;5.40;97.00;;;;;;5073702;28;20082;-77
2021/04/08 08:32:38;;;;;;;9.15;1.92;;;5.50;94.80;;;;;;5075267;28;19924;-77
2021/04/08 08:35:06;;;;;;;5.97;1.40;;;5.60;96.40;;;;;;5072172;28;20385;-77
2021/04/08 08:37:32;;;;;;;8.25;1.70;;;5.60;96.50;;;;;;5076679;28;20048;-77
2021/04/08 08:39:58;;;;;;;7.05;1.40;;;5.60;95.70;;;;;;5065450;28;20032;-77
2021/04/08 08:42:25;;;;;;;6.80;1.70;;;5.70;96.30;;;;;;5071525;28;20063;-77
2021/04/08 08:44:56;;;;;;;7.50;1.90;;;5.80;95.80;;;;;;5070595;28;20071;-77
2021/04/08 08:47:31;;;;;;;7.57;2.30;;;5.90;96.20;;;;;;5070327;28;20495;-77
2021/04/08 08:50:03;;;;;;;10.80;2.03;;;6.00;96.20;;;;;;5066575;28;20481;-77
2021/04/08 08:52:37;;;;;;;6.75;1.83;;;6.20;96.40;;;;;;5079532;28;20137;-77
2021/04/08 08:55:11;;;;;;;7.87;1.70;;;6.40;95.70;;;;;;5066154;28;20464;-78
2021/04/08 08:57:41;;;;;;;7.63;2.00;;;6.40;95.20;;;;;;5072344;28;20321;-77
2021/04/08 09:00:09;;;;;;;5.53;1.92;;;6.50;95.30;;;;;;5076006;28;20123;-77
2021/04/08 09:02:36;;;;;;;7.40;2.13;;;6.50;94.60;;;;;;5071027;28;20166;-76
2021/04/08 09:05:03;;;;;;;11.68;2.10;;;6.50;94.50;;;;;;5074305;28;20457;-76
2021/04/08 09:07:31;;;;;;;5.68;2.25;;;6.60;94.60;;;;;;5076670;28;20435;-76
2021/04/08 09:10:02;;;;;;;5.80;2.75;;;6.70;95.30;;;;;;5069065;28;20075;-76
2021/04/08 09:12:28;;;;;;;9.40;1.60;;;6.80;94.40;;;;;;5073245;28;20048;-76
2021/04/08 09:14:55;;;;;;;5.55;1.58;;;6.90;94.10;;;;;;5078947;28;20032;-76
2021/04/08 09:17:41;;;;;;;6.40;1.60;;;6.90;93.60;;;;;;5082066;28;20105;-76
2021/04/08 09:20:08;;;;;;;4.93;1.42;;;7.00;92.00;;;;;;5071423;28;20036;-76
2021/04/08 09:22:52;;;;;;;5.68;1.77;;;7.00;92.80;;;;;;5073637;28;20132;-76
2021/04/08 09:25:22;;;;;;;9.63;1.80;;;7.00;91.50;;;;;;5065002;28;20025;-76
2021/04/08 09:27:54;;;;;;;6.80;1.83;;;6.90;91.20;;;;;;5077790;28;20032;-76
2021/04/08 09:30:49;;;;;;;6.25;1.95;;;6.90;91.40;;;;;;5068443;28;20036;-76
2021/04/08 09:33:15;;;;;;;13.93;2.85;;;6.80;92.10;;;;;;5072512;28;20037;-77
2021/04/08 09:35:43;;;;;;;6.05;1.80;;;6.80;92.00;;;;;;5067706;28;20070;-76
2021/04/08 09:38:09;;;;;;;6.75;1.92;;;6.80;91.40;;;;;;5071539;28;20040;-76
2021/04/08 09:40:38;;;;;;;7.20;1.65;;;6.70;91.60;;;;;;5065439;28;20048;-76
2021/04/08 09:43:19;;;;;;;5.45;1.80;;;6.80;92.20;;;;;;5079652;28;20037;-76
2021/04/08 09:45:49;;;;;;;6.47;1.85;;;6.70;92.10;;;;;;5068817;28;20048;-76
2021/04/08 09:48:24;;;;;;;8.13;1.98;;;6.80;92.50;;;;;;5074074;28;20035;-76
2021/04/08 09:50:49;;;;;;;7.07;1.92;;;6.90;91.70;;;;;;5072404;28;20388;-77
2021/04/08 09:53:17;;;;;;;7.95;1.92;;;6.90;91.20;;;;;;5073499;28;20085;-78
2021/04/08 09:55:53;;;;;;;5.65;2.17;;;7.00;91.70;;;;;;5072962;28;20048;-77
2021/04/08 09:58:24;;;;;;;7.45;2.28;;;7.10;91.30;;;;;;5080416;28;20037;-77
2021/04/08 10:00:51;;;;;;;8.07;2.20;;;7.30;91.60;;;;;;5076004;28;20548;-77
2021/04/08 10:03:32;;;;;;;5.55;1.73;;;7.50;90.70;;;;;;5072982;28;20107;-77
2021/04/08 10:05:59;;;;;;;5.45;2.03;;;7.70;90.10;;;;;;5072220;28;20039;-77
2021/04/08 10:08:33;;;;;;;7.43;2.10;;;7.90;91.00;;;;;;5070785;28;20032;-76
2021/04/08 10:10:59;;;;;;;5.28;2.00;;;8.00;89.80;;;;;;5073950;28;20036;-76
2021/04/08 10:13:33;;;;;;;6.68;2.05;;;8.10;88.90;;;;;;5072944;28;20032;-76
2021/04/08 10:16:08;;;;;;;4.97;1.60;;;8.20;88.20;;;;;;5074265;28;20544;-77
2021/04/08 10:18:34;;;;;;;3.78;1.77;;;8.20;80.50;;;;;;5069756;28;20048;-77
2021/04/08 10:21:20;;;;;;;5.03;2.10;;;8.30;84.10;;;;;;5074310;28;20043;-77
2021/04/08 10:24:13;;;;;;;4.85;1.60;;;8.50;84.80;;;;;;5066737;28;20062;-78
2021/04/08 10:26:59;;;;;;;6.30;2.05;;;8.70;82.90;;;;;;5077783;28;20048;-78
2021/04/08 10:29:33;;;;;;;6.82;1.85;;;8.80;85.00;;;;;;5078409;28;20499;-77
2021/04/08 10:32:01;;;;;;;4.00;1.92;;;9.10;83.70;;;;;;5079029;28;20120;-77
2021/04/08 10:34:37;;;;;;;4.00;2.00;;;9.20;80.70;;;;;;5069689;28;20476;-77
2021/04/08 10:37:04;;;;;;;6.93;2.13;;;9.20;73.00;;;;;;5074493;28;20052;-77
2021/04/08 10:39:35;;;;;;;3.75;2.10;;;9.00;74.90;;;;;;5070609;28;20078;-78
2021/04/08 10:42:11;;;;;;;4.53;2.38;;;8.70;68.70;;;;;;5079433;28;20053;-78
2021/04/08 10:44:39;;;;;;;4.00;2.22;;;8.50;75.20;;;;;;5076550;28;20041;-78
2021/04/08 10:47:11;;;;;;;3.25;2.10;;;8.40;74.90;;;;;;5076551;28;20450;-78
2021/04/08 10:49:58;;;;;;;3.40;2.30;;;8.50;70.80;;;;;;5067450;28;20104;-75
2021/04/08 10:52:25;;;;;;;3.08;1.88;;;8.70;68.30;;;;;;5078164;28;20047;-76
2021/04/08 10:54:53;;;;;;;6.15;2.90;;;8.90;74.20;;;;;;5059383;28;20040;-77
2021/04/08 10:57:19;;;;;;;4.72;3.00;;;8.90;70.20;;;;;;5079726;28;20047;-77
2021/04/08 10:59:47;;;;;;;3.85;2.78;;;8.80;70.80;;;;;;5068688;28;20110;-77
2021/04/08 11:02:34;;;;;;;6.20;3.80;;;8.90;70.40;;;;;;5074152;28;20453;-77
2021/04/08 11:05:03;;;;;;;4.65;2.80;;;8.90;65.80;;;;;;5073197;28;20029;-77
2021/04/08 11:07:39;;;;;;;5.82;3.10;;;8.80;70.50;;;;;;5082791;28;20041;-77
2021/04/08 11:10:15;;;;;;;6.22;2.83;;;8.80;67.90;;;;;;5072739;28;20139;-77
2021/04/08 11:12:41;;;;;;;5.25;2.72;;;8.80;60.60;;;;;;5078773;28;20067;-77
2021/04/08 11:15:10;;;;;;;5.63;3.05;;;8.70;66.60;;;;;;5076910;28;20040;-77
2021/04/08 11:17:41;;;;;;;4.70;2.38;;;8.60;65.70;;;;;;5079075;28;20059;-76
2021/04/08 11:20:08;;;;;;;4.70;2.78;;;8.50;63.30;;;;;;5071470;28;20071;-76
2021/04/08 11:22:34;;;;;;;4.18;2.60;;;8.40;67.90;;;;;;5077147;28;20041;-77
2021/04/08 11:25:01;;;;;;;4.18;2.75;;;8.30;68.20;;;;;;5070623;28;20033;-77
2021/04/08 11:27:44;;;;;;;4.63;3.05;;;8.30;69.60;;;;;;5072182;28;20040;-76
2021/04/08 11:30:40;;;;;;;4.63;2.85;;;8.40;70.50;;;;;;5073097;28;20058;-76
2021/04/08 11:33:13;;;;;;;7.93;3.45;;;8.40;62.50;;;;;;5083810;28;20037;-75
2021/04/08 11:35:43;;;;;;;5.07;2.88;;;8.40;66.10;;;;;;5070494;28;20062;-76
2021/04/08 11:38:14;;;;;;;6.35;2.80;;;8.40;65.70;;;;;;5075695;28;20074;-76
2021/04/08 11:40:47;;;;;;;6.63;3.38;;;8.40;67.10;;;;;;5076394;28;20056;-77
2021/04/08 11:43:22;;;;;;;5.97;3.78;;;8.60;68.20;;;;;;5081206;28;20472;-77
2021/04/08 11:45:49;;;;;;;7.38;3.28;;;8.70;66.20;;;;;;5070497;28;20124;-76
2021/04/08 11:48:15;;;;;;;5.35;4.07;;;8.90;69.80;;;;;;5080676;28;20093;-77
2021/04/08 11:50:45;;;;;;;6.88;3.60;;;9.00;71.60;;;;;;5076293;28;20431;-77
2021/04/08 11:53:12;;;;;;;6.13;3.72;;;9.20;71.90;;;;;;5082688;28;20460;-77
2021/04/08 11:55:50;;;;;;;6.60;4.43;;;9.30;72.20;;;;;;5067731;28;20543;-77
2021/04/08 11:58:33;;;;;;;5.20;3.90;;;9.40;63.80;;;;;;5080627;28;20036;-77
2021/04/08 12:01:09;;;;;;;6.25;4.03;;;9.40;67.50;;;;;;5074005;28;20047;-77
2021/04/08 12:03:37;;;;;;;6.22;4.13;;;9.30;68.00;;;;;;5077019;28;20066;-77
2021/04/08 12:06:17;;;;;;;8.23;4.00;;;9.30;71.70;;;;;;5074450;28;20048;-77
2021/04/08 12:08:50;;;;;;;7.57;4.32;;;9.30;68.70;;;;;;5073025;28;20116;-77
2021/04/08 12:11:17;;;;;;;8.73;4.40;;;9.20;68.90;;;;;;5073837;28;20032;-77
2021/04/08 12:13:47;;;;;;;6.55;4.72;;;9.30;70.50;;;;;;5078138;28;20032;-77
2021/04/08 12:16:25;;;;;;;9.65;5.43;;;9.20;66.00;;;;;;5069066;28;20060;-77
2021/04/08 12:18:54;;;;;;;8.25;5.65;;;9.10;62.90;;;;;;5083345;28;20040;-78
2021/04/08 12:21:21;;;;;;;8.73;5.60;;;9.20;66.70;;;;;;5076925;28;20057;-77
2021/04/08 12:23:48;;;;;;;6.22;4.65;;;9.20;65.90;;;;;;5077616;28;20040;-77
2021/04/08 12:26:14;;;;;;;8.55;5.28;;;9.00;64.30;;;;;;5075335;28;20154;-77
2021/04/08 12:28:41;;;;;;;7.18;5.57;;;8.90;66.10;;;;;;5069314;28;20049;-77
2021/04/08 12:31:09;;;;;;;7.63;5.28;;;8.80;65.60;;;;;;5078326;28;20032;-76
2021/04/08 12:33:36;;;;;;;8.35;5.10;;;8.80;68.00;;;;;;5067046;28;20036;-77
2021/04/08 12:36:04;;;;;;;6.80;5.45;;;8.80;68.90;;;;;;5072442;28;20437;-77
2021/04/08 12:38:31;;;;;;;6.57;5.15;;;8.90;67.50;;;;;;5069050;28;20079;-76
2021/04/08 12:40:58;;;;;;;8.43;5.72;;;9.00;68.20;;;;;;5070067;28;20040;-77
2021/04/08 12:43:25;;;;;;;10.10;5.90;;;9.10;68.60;;;;;;5067392;28;20068;-76
2021/04/08 12:45:51;;;;;;;6.00;5.38;;;9.10;65.00;;;;;;5070554;28;20043;-76
2021/04/08 12:48:18;;;;;;;8.35;6.13;;;9.10;65.10;;;;;;5073733;28;20067;-76
2021/04/08 12:50:45;;;;;;;6.25;4.97;;;9.10;66.90;;;;;;5072239;28;20070;-76
2021/04/08 12:53:12;;;;;;;9.55;5.78;;;9.10;67.30;;;;;;5071399;28;20155;-77
2021/04/08 12:55:39;;;;;;;6.13;5.28;;;9.00;68.80;;;;;;5072703;28;20036;-77
2021/04/08 12:58:06;;;;;;;6.20;5.40;;;9.30;68.30;;;;;;5069843;28;20511;-77
2021/04/08 13:00:32;;;;;;;9.20;6.20;;;9.60;70.80;;;;;;5077471;28;20053;-77
2021/04/08 13:02:58;;;;;;;8.70;6.55;;;9.70;67.00;;;;;;5065987;28;20041;-77
2021/04/08 13:05:25;;;;;;;9.85;7.82;;;9.70;69.20;;;;;;5070963;28;20067;-77
2021/04/08 13:07:51;;;;;;;8.27;6.00;;;9.60;66.20;;;;;;5074756;28;20082;-77